Time;durP1;ratioP1;P1;durP2;ratioP2;P2;SDS_P1;SDS_P2;PMS_P1;PMS_P2;Temp;Humidity;BMP_temperature;BMP_pressure;BME280_temperature;BME280_humidity;BME280_pressure;Samples;Min_cycle;Max_cycle;Signal;HPM_P1;HPM_P2
2022/11/27 04:01:34;;;;;;;0.70;0.70;;;4.40;84.10;;;;;;5654348;23;21019;-70
2022/11/27 04:04:01;;;;;;;0.80;0.80;;;4.40;84.10;;;;;;4975778;28;20454;-71
2022/11/27 04:06:28;;;;;;;0.80;0.80;;;4.40;83.90;;;;;;4975883;28;20450;-71
2022/11/27 04:08:54;;;;;;;0.80;0.80;;;4.40;84.00;;;;;;4975528;28;20522;-71
2022/11/27 04:11:21;;;;;;;0.80;0.80;;;4.40;84.00;;;;;;4975664;28;20470;-70
2022/11/27 04:13:48;;;;;;;0.87;0.87;;;4.40;84.00;;;;;;4975392;28;20454;-71
2022/11/27 04:16:14;;;;;;;0.70;0.70;;;4.40;84.00;;;;;;4976846;28;20937;-70
2022/11/27 04:18:42;;;;;;;0.70;0.70;;;4.40;83.90;;;;;;4975599;28;20465;-71
2022/11/27 04:21:10;;;;;;;1.03;1.03;;;4.40;83.60;;;;;;4975173;28;20473;-71
2022/11/27 04:23:37;;;;;;;0.90;0.90;;;4.40;83.60;;;;;;4975502;28;20458;-70
2022/11/27 04:26:04;;;;;;;0.70;0.70;;;4.40;83.80;;;;;;4975369;28;20577;-70
2022/11/27 04:28:31;;;;;;;0.80;0.80;;;4.40;84.00;;;;;;4975433;28;20451;-71
2022/11/27 04:30:58;;;;;;;0.80;0.80;;;4.30;84.00;;;;;;4975006;28;20528;-71
2022/11/27 04:33:25;;;;;;;0.70;0.70;;;4.40;83.80;;;;;;4975372;28;20481;-71
2022/11/27 04:35:53;;;;;;;0.63;0.63;;;4.30;83.80;;;;;;4975332;28;20867;-71
2022/11/27 04:38:21;;;;;;;0.90;0.80;;;4.40;83.80;;;;;;4975256;28;20469;-71
2022/11/27 04:40:48;;;;;;;0.70;0.70;;;4.40;83.60;;;;;;4975166;28;20486;-71
2022/11/27 04:43:14;;;;;;;0.73;0.73;;;4.40;83.70;;;;;;4975193;28;20450;-71
2022/11/27 04:45:43;;;;;;;0.70;0.70;;;4.30;83.80;;;;;;4975088;28;20486;-71
2022/11/27 04:48:10;;;;;;;0.80;0.80;;;4.30;83.70;;;;;;4975117;28;20820;-71
2022/11/27 04:50:36;;;;;;;0.90;0.90;;;4.30;83.60;;;;;;4975025;28;20454;-71
2022/11/27 04:53:04;;;;;;;0.87;0.87;;;4.30;83.60;;;;;;4975055;28;20454;-71
2022/11/27 04:55:31;;;;;;;0.70;0.70;;;4.30;83.60;;;;;;4975053;28;20446;-70
2022/11/27 04:57:58;;;;;;;0.70;0.70;;;4.30;83.60;;;;;;4974671;28;20968;-70
2022/11/27 05:00:25;;;;;;;0.70;0.70;;;4.20;83.70;;;;;;4974205;28;20450;-71
2022/11/27 05:02:51;;;;;;;0.70;0.70;;;4.20;83.80;;;;;;4974559;28;20461;-71
2022/11/27 05:05:18;;;;;;;0.70;0.70;;;4.30;83.90;;;;;;4974775;28;20489;-70
2022/11/27 05:07:45;;;;;;;0.80;0.80;;;4.30;83.90;;;;;;4974805;28;20457;-71
2022/11/27 05:10:13;;;;;;;0.70;0.70;;;4.30;84.00;;;;;;4974828;28;20456;-70
2022/11/27 05:12:39;;;;;;;0.70;0.70;;;4.20;83.90;;;;;;4974918;28;20474;-71
2022/11/27 05:15:08;;;;;;;0.80;0.80;;;4.10;84.10;;;;;;4974754;28;20454;-71
2022/11/27 05:17:34;;;;;;;0.80;0.80;;;4.10;84.10;;;;;;4974782;28;20477;-71
2022/11/27 05:20:01;;;;;;;0.70;0.70;;;4.10;84.10;;;;;;4974769;28;20457;-71
2022/11/27 05:22:28;;;;;;;0.80;0.80;;;4.00;84.10;;;;;;4974361;28;20858;-71
2022/11/27 05:24:54;;;;;;;0.70;0.70;;;4.10;84.30;;;;;;4974515;28;20474;-71
2022/11/27 05:27:22;;;;;;;0.70;0.70;;;4.10;84.30;;;;;;4974630;28;20446;-71
2022/11/27 05:29:49;;;;;;;0.70;0.70;;;4.10;84.70;;;;;;4974705;28;20450;-69
2022/11/27 05:32:16;;;;;;;0.60;0.60;;;4.10;85.10;;;;;;4974532;28;20467;-71
2022/11/27 05:34:43;;;;;;;0.90;0.90;;;4.10;85.50;;;;;;4974541;28;20446;-70
2022/11/27 05:37:11;;;;;;;0.70;0.70;;;4.20;85.40;;;;;;4974534;28;20454;-71
2022/11/27 05:39:38;;;;;;;0.70;0.70;;;4.20;85.10;;;;;;4974556;28;20870;-70
2022/11/27 05:42:05;;;;;;;0.70;0.70;;;4.20;85.00;;;;;;4974460;28;20477;-71
2022/11/27 05:44:33;;;;;;;0.70;0.70;;;4.10;85.90;;;;;;4974464;28;20450;-71
2022/11/27 05:46:59;;;;;;;0.90;0.90;;;4.00;86.40;;;;;;4974497;28;20467;-71
2022/11/27 05:49:26;;;;;;;0.70;0.70;;;3.90;87.00;;;;;;4974411;28;20473;-70
2022/11/27 05:51:53;;;;;;;0.70;0.70;;;3.90;87.30;;;;;;4974698;28;20470;-71
2022/11/27 05:54:19;;;;;;;0.90;0.90;;;3.90;87.70;;;;;;4974116;28;20834;-71
2022/11/27 05:56:46;;;;;;;0.70;0.70;;;3.90;88.00;;;;;;4974126;28;20961;-71
2022/11/27 05:59:13;;;;;;;0.80;0.80;;;3.80;88.50;;;;;;4974348;28;20454;-71
2022/11/27 06:01:42;;;;;;;0.70;0.70;;;3.80;88.50;;;;;;4974093;28;20835;-70
2022/11/27 06:04:08;;;;;;;0.80;0.80;;;3.90;88.60;;;;;;4974268;28;20461;-70
2022/11/27 06:06:35;;;;;;;0.70;0.70;;;3.90;88.40;;;;;;4974234;28;20485;-71
2022/11/27 06:09:02;;;;;;;0.70;0.70;;;4.00;88.10;;;;;;4974297;28;20450;-71
2022/11/27 06:11:28;;;;;;;1.17;1.10;;;3.90;86.60;;;;;;4975212;28;20478;-71
2022/11/27 06:13:55;;;;;;;1.10;1.00;;;3.80;86.30;;;;;;4978044;28;20454;-71
2022/11/27 06:16:23;;;;;;;1.00;1.00;;;3.90;86.00;;;;;;4977928;28;20450;-70
2022/11/27 06:18:53;;;;;;;1.10;1.10;;;4.00;84.90;;;;;;4977964;28;20453;-71
2022/11/27 06:21:21;;;;;;;1.60;1.10;;;3.90;85.10;;;;;;4977541;28;21015;-71
2022/11/27 06:23:48;;;;;;;0.90;0.90;;;3.90;85.60;;;;;;4977810;28;20446;-71
2022/11/27 06:26:17;;;;;;;0.80;0.80;;;4.00;85.40;;;;;;4977640;28;20485;-71
2022/11/27 06:28:44;;;;;;;0.90;0.90;;;4.10;85.00;;;;;;4977696;28;20461;-71
2022/11/27 06:31:13;;;;;;;0.80;0.80;;;4.10;84.80;;;;;;4977611;28;20470;-71
2022/11/27 06:33:41;;;;;;;0.93;0.93;;;4.10;84.40;;;;;;4977304;28;20938;-71
2022/11/27 06:36:09;;;;;;;0.80;0.80;;;4.20;84.10;;;;;;4977563;28;20446;-71
2022/11/27 06:38:38;;;;;;;1.00;0.90;;;4.20;83.80;;;;;;4977526;28;20450;-71
2022/11/27 06:41:08;;;;;;;0.80;0.80;;;4.10;83.40;;;;;;4977436;28;20474;-71
2022/11/27 06:43:36;;;;;;;0.70;0.70;;;4.10;83.70;;;;;;4977446;28;20435;-71
2022/11/27 06:46:04;;;;;;;0.70;0.70;;;3.80;84.20;;;;;;4977087;28;21020;-71
2022/11/27 06:48:31;;;;;;;0.80;0.80;;;3.80;84.90;;;;;;4977415;28;20491;-71
2022/11/27 06:51:00;;;;;;;0.80;0.80;;;3.90;84.50;;;;;;4977278;28;20835;-71
2022/11/27 06:53:28;;;;;;;1.07;0.97;;;3.90;84.00;;;;;;4977410;28;20482;-71
2022/11/27 06:55:55;;;;;;;0.80;0.80;;;3.90;84.00;;;;;;4977161;28;20446;-71
2022/11/27 06:58:22;;;;;;;1.00;1.00;;;4.00;83.80;;;;;;4976906;28;20974;-72
2022/11/27 07:00:48;;;;;;;0.90;0.90;;;4.00;83.40;;;;;;4976928;28;20513;-71
2022/11/27 07:03:15;;;;;;;1.20;1.20;;;4.00;83.70;;;;;;4976895;28;20909;-70
2022/11/27 07:05:42;;;;;;;1.43;1.43;;;4.10;83.50;;;;;;4977043;28;20489;-71
2022/11/27 07:08:09;;;;;;;0.90;0.90;;;4.20;83.00;;;;;;4977042;28;20465;-71
2022/11/27 07:10:37;;;;;;;0.80;0.80;;;4.10;83.10;;;;;;4976785;28;20807;-71
2022/11/27 07:13:04;;;;;;;0.80;0.80;;;4.00;83.50;;;;;;4977076;28;20446;-71
2022/11/27 07:15:31;;;;;;;0.80;0.80;;;4.10;83.50;;;;;;4977004;28;20453;-71
2022/11/27 07:17:58;;;;;;;0.90;0.90;;;4.20;83.30;;;;;;4977030;28;20461;-71
2022/11/27 07:20:25;;;;;;;0.80;0.80;;;4.20;82.60;;;;;;4976863;28;20454;-72
2022/11/27 07:22:52;;;;;;;0.80;0.80;;;4.40;82.30;;;;;;4976171;28;20458;-71
2022/11/27 07:25:19;;;;;;;0.70;0.70;;;4.70;80.80;;;;;;4976337;28;20489;-71
2022/11/27 07:27:47;;;;;;;0.80;0.80;;;4.80;80.20;;;;;;4976689;28;20454;-71
2022/11/27 07:30:14;;;;;;;1.17;1.17;;;4.70;80.70;;;;;;4976351;28;20522;-71
2022/11/27 07:32:41;;;;;;;0.90;0.90;;;4.90;80.20;;;;;;4976431;28;20473;-70
2022/11/27 07:35:08;;;;;;;1.13;1.13;;;4.60;79.90;;;;;;4976652;28;20446;-70
2022/11/27 07:37:35;;;;;;;0.80;0.80;;;4.10;81.60;;;;;;4976559;28;20457;-70
2022/11/27 07:40:02;;;;;;;0.80;0.80;;;4.20;83.10;;;;;;4976390;28;20454;-71
2022/11/27 07:42:29;;;;;;;0.90;0.90;;;4.30;82.70;;;;;;4976169;28;20466;-70
2022/11/27 07:44:57;;;;;;;0.90;0.90;;;4.20;83.70;;;;;;4976287;28;20537;-70
2022/11/27 07:47:24;;;;;;;0.70;0.70;;;4.40;83.90;;;;;;4976330;28;20506;-69
2022/11/27 07:49:50;;;;;;;0.90;0.90;;;4.20;84.20;;;;;;4976294;28;20838;-71
2022/11/27 07:52:17;;;;;;;1.00;0.80;;;4.20;85.40;;;;;;4976122;28;20482;-72
2022/11/27 07:54:44;;;;;;;1.07;1.07;;;4.40;84.60;;;;;;4975799;28;20964;-71
2022/11/27 07:57:10;;;;;;;0.90;0.90;;;4.40;84.50;;;;;;4976130;28;20451;-72
2022/11/27 07:59:37;;;;;;;0.80;0.80;;;4.50;84.40;;;;;;4975664;28;20945;-72
2022/11/27 08:02:05;;;;;;;0.80;0.80;;;4.70;84.70;;;;;;4975687;28;20478;-72
2022/11/27 08:04:32;;;;;;;0.80;0.80;;;5.00;83.10;;;;;;4976089;28;20446;-72
2022/11/27 08:06:59;;;;;;;0.70;0.70;;;5.00;82.20;;;;;;4975822;28;20482;-72
2022/11/27 08:09:25;;;;;;;0.80;0.80;;;5.20;82.30;;;;;;4975947;28;20454;-72
2022/11/27 08:11:52;;;;;;;0.70;0.70;;;5.30;81.80;;;;;;4975675;28;20833;-72
2022/11/27 08:14:19;;;;;;;1.20;1.20;;;5.40;81.70;;;;;;4975764;28;20454;-72
2022/11/27 08:16:45;;;;;;;1.70;1.70;;;5.40;82.00;;;;;;4976043;28;20486;-72
2022/11/27 08:19:13;;;;;;;2.77;2.67;;;5.90;82.00;;;;;;4975728;28;20796;-72
2022/11/27 08:21:40;;;;;;;1.00;1.00;;;6.60;79.60;;;;;;4975232;28;20990;-72
2022/11/27 08:24:08;;;;;;;0.90;0.90;;;6.60;77.90;;;;;;4975746;28;20801;-73
2022/11/27 08:26:34;;;;;;;0.80;0.80;;;6.80;78.50;;;;;;4975256;28;20478;-73
2022/11/27 08:29:01;;;;;;;1.60;1.50;;;6.90;78.50;;;;;;4975579;28;20453;-73
2022/11/27 08:31:28;;;;;;;1.20;1.20;;;6.80;77.90;;;;;;4975382;28;20469;-72
2022/11/27 08:33:56;;;;;;;0.90;0.90;;;6.60;79.30;;;;;;4975416;28;20477;-71
2022/11/27 08:36:26;;;;;;;1.00;1.00;;;6.30;80.30;;;;;;4974405;28;20442;-71
2022/11/27 08:38:53;;;;;;;0.70;0.70;;;6.10;82.20;;;;;;4975311;28;20438;-71
2022/11/27 08:41:20;;;;;;;0.80;0.80;;;5.90;83.10;;;;;;4975157;28;20474;-71
2022/11/27 08:43:47;;;;;;;0.80;0.80;;;5.80;83.40;;;;;;4974872;28;20961;-71
2022/11/27 08:46:14;;;;;;;0.70;0.70;;;5.70;83.80;;;;;;4975022;28;20489;-72
2022/11/27 08:48:41;;;;;;;0.80;0.80;;;5.60;84.50;;;;;;4974862;28;20818;-72
2022/11/27 08:51:09;;;;;;;0.80;0.80;;;5.80;84.10;;;;;;4975043;28;20529;-72
2022/11/27 08:53:38;;;;;;;0.80;0.80;;;5.70;84.40;;;;;;4975051;28;20450;-72
2022/11/27 08:56:07;;;;;;;0.70;0.70;;;5.80;84.00;;;;;;4975010;28;20446;-72
2022/11/27 08:58:33;;;;;;;0.60;0.60;;;6.00;84.00;;;;;;4974932;28;20457;-72
2022/11/27 09:01:07;;;;;;;0.70;0.70;;;6.00;84.40;;;;;;4974636;28;20486;-72
2022/11/27 09:03:34;;;;;;;0.80;0.80;;;5.70;85.10;;;;;;4974529;28;20435;-72
2022/11/27 09:06:00;;;;;;;0.70;0.70;;;5.60;85.60;;;;;;4974730;28;20489;-72
2022/11/27 09:08:27;;;;;;;0.97;0.97;;;5.70;86.20;;;;;;4974546;28;20942;-72
2022/11/27 09:10:59;;;;;;;0.83;0.83;;;5.80;86.40;;;;;;4974683;28;20477;-72
2022/11/27 09:13:26;;;;;;;0.80;0.80;;;6.10;86.20;;;;;;4974777;28;20438;-72
2022/11/27 09:15:52;;;;;;;0.67;0.60;;;6.20;85.00;;;;;;4974387;28;20469;-72
2022/11/27 09:18:19;;;;;;;0.70;0.70;;;6.30;85.10;;;;;;4974620;28;20453;-72
2022/11/27 09:20:54;;;;;;;0.60;0.60;;;6.60;84.50;;;;;;4974572;28;20541;-72
2022/11/27 09:23:21;;;;;;;0.67;0.67;;;6.50;82.40;;;;;;4974688;28;20481;-72
2022/11/27 09:25:48;;;;;;;0.67;0.67;;;6.40;83.60;;;;;;4974502;28;20910;-71
2022/11/27 09:28:16;;;;;;;0.70;0.70;;;6.10;84.30;;;;;;4975103;28;20505;-71
2022/11/27 09:30:43;;;;;;;0.70;0.70;;;6.00;84.90;;;;;;4974475;28;20477;-72
2022/11/27 09:33:09;;;;;;;0.70;0.70;;;6.40;84.30;;;;;;4974529;28;20454;-72
2022/11/27 09:35:37;;;;;;;0.80;0.80;;;6.40;84.50;;;;;;4974488;28;20465;-72
2022/11/27 09:38:04;;;;;;;0.80;0.80;;;6.20;85.50;;;;;;4974479;28;20449;-70
2022/11/27 09:40:31;;;;;;;0.70;0.70;;;6.10;85.60;;;;;;4974074;28;20454;-72
2022/11/27 09:43:05;;;;;;;0.70;0.70;;;6.00;86.70;;;;;;4974156;28;20577;-73
2022/11/27 09:45:34;;;;;;;0.70;0.70;;;6.00;86.70;;;;;;4974168;28;20489;-73
2022/11/27 09:48:05;;;;;;;0.60;0.60;;;6.00;86.30;;;;;;4977843;28;20490;-72
2022/11/27 09:50:36;;;;;;;0.60;0.60;;;6.20;86.50;;;;;;4978571;28;20454;-73
2022/11/27 09:53:10;;;;;;;0.70;0.70;;;6.40;85.00;;;;;;4978345;28;20442;-72
2022/11/27 09:55:40;;;;;;;0.80;0.80;;;6.50;84.50;;;;;;4978301;28;20445;-72
2022/11/27 09:58:15;;;;;;;0.70;0.70;;;6.70;83.60;;;;;;4978530;28;20879;-72
2022/11/27 10:00:45;;;;;;;0.80;0.80;;;6.90;82.80;;;;;;4978052;28;20812;-73
2022/11/27 10:03:13;;;;;;;0.60;0.60;;;6.90;80.20;;;;;;4977838;28;20937;-73
2022/11/27 10:05:47;;;;;;;0.90;0.80;;;6.90;81.10;;;;;;4978047;28;20461;-73
2022/11/27 10:08:31;;;;;;;0.70;0.70;;;6.90;81.20;;;;;;4978032;28;20446;-73
2022/11/27 10:11:13;;;;;;;1.00;1.00;;;7.00;81.80;;;;;;4977889;28;20466;-72
2022/11/27 10:14:03;;;;;;;0.80;0.80;;;7.30;81.70;;;;;;4977977;28;20447;-72
2022/11/27 10:16:38;;;;;;;0.70;0.70;;;7.80;81.10;;;;;;4979269;28;20430;-72
2022/11/27 10:19:12;;;;;;;0.77;0.77;;;7.80;79.00;;;;;;4977539;28;20434;-72
2022/11/27 10:21:46;;;;;;;0.70;0.70;;;7.60;78.20;;;;;;4977706;28;20470;-71
2022/11/27 10:24:21;;;;;;;0.83;0.60;;;7.60;78.40;;;;;;4977682;28;20521;-71
2022/11/27 10:26:50;;;;;;;0.70;0.70;;;7.40;79.40;;;;;;4977579;28;20470;-72
2022/11/27 10:29:30;;;;;;;0.70;0.70;;;7.40;80.50;;;;;;4977674;28;20825;-73
2022/11/27 10:32:01;;;;;;;0.60;0.60;;;7.50;78.70;;;;;;4977297;28;20470;-72
2022/11/27 10:34:36;;;;;;;0.57;0.57;;;7.50;77.10;;;;;;4977582;28;20841;-72
2022/11/27 10:37:12;;;;;;;0.70;0.70;;;7.30;75.80;;;;;;4977197;28;20437;-72
2022/11/27 10:39:42;;;;;;;0.70;0.70;;;7.40;78.30;;;;;;4977529;28;20434;-72
2022/11/27 10:42:14;;;;;;;0.67;0.67;;;7.60;78.10;;;;;;4977001;28;20473;-72
2022/11/27 10:44:45;;;;;;;0.60;0.60;;;7.70;76.70;;;;;;4977044;28;20942;-73
2022/11/27 10:47:15;;;;;;;0.60;0.60;;;7.90;76.10;;;;;;4977308;28;20819;-72
2022/11/27 10:49:42;;;;;;;0.60;0.60;;;8.10;75.60;;;;;;4977282;28;20459;-72
2022/11/27 10:52:14;;;;;;;0.60;0.60;;;8.50;75.00;;;;;;4977140;28;20474;-73
2022/11/27 10:54:41;;;;;;;0.87;0.87;;;8.90;72.70;;;;;;4977196;28;20446;-72
2022/11/27 10:57:36;;;;;;;0.60;0.60;;;9.00;72.20;;;;;;4977150;28;20477;-72
2022/11/27 11:00:10;;;;;;;0.70;0.70;;;8.80;73.10;;;;;;4976739;28;20847;-71
2022/11/27 11:02:39;;;;;;;0.80;0.80;;;8.80;73.10;;;;;;4976691;28;20485;-72
2022/11/27 11:05:23;;;;;;;1.10;1.10;;;8.40;72.90;;;;;;4977007;28;20446;-72
2022/11/27 11:07:56;;;;;;;0.60;0.60;;;8.20;73.40;;;;;;4976859;28;20493;-72
2022/11/27 11:10:28;;;;;;;0.60;0.60;;;8.10;74.40;;;;;;4977368;28;20489;-72
2022/11/27 11:13:18;;;;;;;0.60;0.60;;;8.20;74.80;;;;;;4976872;28;20435;-72
2022/11/27 11:15:52;;;;;;;0.60;0.60;;;8.40;75.00;;;;;;4976823;28;20438;-72
2022/11/27 11:18:22;;;;;;;0.60;0.60;;;8.50;74.30;;;;;;4976785;28;20434;-72
2022/11/27 11:20:51;;;;;;;0.60;0.60;;;8.30;74.70;;;;;;4976680;28;20492;-72
2022/11/27 11:23:25;;;;;;;0.60;0.60;;;8.40;74.80;;;;;;4976680;28;20450;-73
2022/11/27 11:25:55;;;;;;;0.60;0.60;;;8.50;73.40;;;;;;4976361;28;20929;-72
2022/11/27 11:28:23;;;;;;;0.60;0.60;;;8.60;73.90;;;;;;4976497;28;20577;-72
2022/11/27 11:30:58;;;;;;;0.60;0.60;;;8.70;73.50;;;;;;4976491;28;20561;-72
2022/11/27 11:33:27;;;;;;;0.70;0.70;;;8.70;72.50;;;;;;4976571;28;20831;-71
2022/11/27 11:35:59;;;;;;;0.60;0.60;;;8.70;71.70;;;;;;4976439;28;20453;-72
2022/11/27 11:38:30;;;;;;;0.60;0.60;;;8.50;72.10;;;;;;4976514;28;20437;-72
2022/11/27 11:41:02;;;;;;;0.67;0.67;;;8.50;72.80;;;;;;4976395;28;20477;-72
2022/11/27 11:43:30;;;;;;;0.60;0.60;;;8.60;72.60;;;;;;4976136;28;20434;-72
2022/11/27 11:46:16;;;;;;;0.53;0.53;;;8.50;72.70;;;;;;4975962;28;20950;-71
2022/11/27 11:48:55;;;;;;;0.70;0.70;;;8.30;73.50;;;;;;4975931;28;20430;-71
2022/11/27 11:51:29;;;;;;;0.60;0.60;;;8.40;73.70;;;;;;4976107;28;20458;-72
2022/11/27 11:54:08;;;;;;;0.60;0.60;;;8.40;73.60;;;;;;4975808;28;20944;-72
2022/11/27 11:56:39;;;;;;;0.60;0.60;;;8.70;73.80;;;;;;4976108;28;20433;-71
2022/11/27 11:59:14;;;;;;;0.60;0.60;;;9.30;73.30;;;;;;4976024;28;20437;-71
2022/11/27 12:01:53;;;;;;;0.70;0.70;;;9.70;71.60;;;;;;4975642;28;20929;-72
2022/11/27 12:04:54;;;;;;;0.87;0.87;;;9.70;71.40;;;;;;4975955;28;20525;-72
2022/11/27 12:07:36;;;;;;;0.60;0.60;;;10.30;70.30;;;;;;4985531;28;20580;-71
2022/11/27 12:10:11;;;;;;;0.80;0.80;;;11.50;68.30;;;;;;4985885;28;20430;-73
2022/11/27 12:12:50;;;;;;;0.80;0.80;;;13.10;66.10;;;;;;4985740;28;20478;-72
2022/11/27 12:15:26;;;;;;;0.80;0.80;;;14.60;62.70;;;;;;4985262;28;20438;-72
2022/11/27 12:18:00;;;;;;;0.70;0.70;;;15.90;58.50;;;;;;4985381;28;20442;-72
2022/11/27 12:20:41;;;;;;;0.70;0.70;;;17.70;55.30;;;;;;4984167;28;20435;-73
2022/11/27 12:23:38;;;;;;;0.97;0.97;;;19.20;52.60;;;;;;4984535;28;20445;-73
2022/11/27 12:26:15;;;;;;;0.70;0.70;;;19.40;49.60;;;;;;4985852;28;20430;-72
2022/11/27 12:28:58;;;;;;;0.80;0.80;;;18.10;51.50;;;;;;4985048;28;20470;-73
2022/11/27 12:31:39;;;;;;;0.60;0.60;;;18.00;51.90;;;;;;4985065;28;20474;-73
2022/11/27 12:34:13;;;;;;;0.60;0.60;;;19.40;49.30;;;;;;4985256;28;20438;-70
2022/11/27 12:36:59;;;;;;;0.70;0.70;;;21.00;46.70;;;;;;4984750;28;20447;-71
2022/11/27 12:39:32;;;;;;;0.70;0.70;;;23.50;42.40;;;;;;4985745;28;20443;-71
2022/11/27 12:42:04;;;;;;;0.70;0.70;;;25.70;38.10;;;;;;4975541;28;20837;-71
2022/11/27 12:44:50;;;;;;;0.80;0.80;;;26.40;36.30;;;;;;4975244;28;20435;-70
2022/11/27 12:47:22;;;;;;;0.50;0.50;;;27.30;34.90;;;;;;4975098;28;20473;-70
2022/11/27 12:49:54;;;;;;;0.60;0.60;;;27.20;34.50;;;;;;4975106;28;20435;-69
2022/11/27 12:52:25;;;;;;;0.90;0.90;;;26.60;35.30;;;;;;4974990;28;20557;-70
2022/11/27 12:54:57;;;;;;;0.70;0.70;;;23.80;38.70;;;;;;4975010;28;20453;-70
2022/11/27 12:57:31;;;;;;;0.70;0.70;;;22.90;40.40;;;;;;4975025;28;20438;-69
2022/11/27 13:00:03;;;;;;;0.70;0.70;;;22.10;41.10;;;;;;4974559;28;20940;-70
2022/11/27 13:02:35;;;;;;;0.70;0.70;;;21.20;43.50;;;;;;4974464;28;20545;-69
2022/11/27 13:05:06;;;;;;;0.70;0.70;;;20.80;44.80;;;;;;4976348;28;20441;-70
2022/11/27 13:07:40;;;;;;;0.70;0.70;;;20.00;46.30;;;;;;4978721;28;20473;-71
2022/11/27 13:10:16;;;;;;;0.70;0.70;;;19.40;46.90;;;;;;4976519;28;20441;-71
2022/11/27 13:12:48;;;;;;;0.80;0.80;;;17.80;49.40;;;;;;4977567;28;20950;-70
2022/11/27 13:15:23;;;;;;;1.00;1.00;;;16.50;52.10;;;;;;4977307;28;20435;-71
2022/11/27 13:17:55;;;;;;;0.80;0.80;;;15.90;53.80;;;;;;4977376;28;20445;-71
2022/11/27 13:20:30;;;;;;;0.90;0.90;;;15.30;54.80;;;;;;4977170;28;20443;-71
2022/11/27 13:22:58;;;;;;;0.90;0.90;;;14.50;57.20;;;;;;4976767;28;20437;-70
2022/11/27 13:25:27;;;;;;;0.80;0.80;;;13.40;59.20;;;;;;4976461;28;20446;-70
2022/11/27 13:27:54;;;;;;;0.80;0.80;;;13.10;61.00;;;;;;4976116;28;20489;-70
2022/11/27 13:30:24;;;;;;;0.80;0.80;;;13.80;59.60;;;;;;4976893;28;20454;-70
2022/11/27 13:32:54;;;;;;;0.70;0.70;;;13.90;58.80;;;;;;4976817;28;20454;-70
2022/11/27 13:35:27;;;;;;;0.97;0.80;;;13.80;58.40;;;;;;4976572;28;20439;-71
2022/11/27 13:38:06;;;;;;;0.80;0.80;;;13.40;58.70;;;;;;4976484;28;20434;-70
2022/11/27 13:40:39;;;;;;;0.60;0.60;;;13.10;59.70;;;;;;4977015;28;20430;-70
2022/11/27 13:43:14;;;;;;;0.83;0.83;;;13.00;60.30;;;;;;4976495;28;20457;-70
2022/11/27 13:45:41;;;;;;;0.80;0.80;;;12.90;60.90;;;;;;4976547;28;20453;-73
2022/11/27 13:48:32;;;;;;;0.80;0.80;;;12.70;61.30;;;;;;4975922;28;20493;-71
2022/11/27 13:51:00;;;;;;;2.20;0.80;;;12.00;62.10;;;;;;4975963;28;20462;-71
2022/11/27 13:53:34;;;;;;;0.70;0.70;;;11.80;63.40;;;;;;4979468;28;20453;-71
2022/11/27 13:56:00;;;;;;;1.00;0.90;;;11.80;63.50;;;;;;4981722;28;20451;-72
2022/11/27 13:58:29;;;;;;;0.80;0.80;;;11.70;64.20;;;;;;4981007;28;20450;-72
2022/11/27 14:00:56;;;;;;;0.83;0.83;;;11.10;65.50;;;;;;4974097;28;20470;-72
2022/11/27 14:03:25;;;;;;;0.80;0.80;;;10.90;66.60;;;;;;4974425;28;20453;-72
2022/11/27 14:05:52;;;;;;;0.90;0.90;;;10.70;66.90;;;;;;4974030;28;20865;-71
2022/11/27 14:08:23;;;;;;;0.70;0.70;;;10.90;67.40;;;;;;4973881;28;21089;-71
2022/11/27 14:10:57;;;;;;;0.70;0.70;;;10.90;67.30;;;;;;4973845;28;21044;-72
2022/11/27 14:13:34;;;;;;;0.70;0.70;;;10.90;67.20;;;;;;4974279;28;20435;-72
2022/11/27 14:16:03;;;;;;;0.70;0.70;;;10.90;66.90;;;;;;4974305;28;20438;-69
2022/11/27 14:18:31;;;;;;;0.73;0.73;;;11.00;66.40;;;;;;4974174;28;20473;-70
2022/11/27 14:21:00;;;;;;;0.60;0.60;;;11.10;66.50;;;;;;4974043;28;20477;-71
2022/11/27 14:23:29;;;;;;;0.70;0.70;;;11.00;66.60;;;;;;4974060;28;20458;-70
2022/11/27 14:26:06;;;;;;;1.07;0.70;;;10.90;67.00;;;;;;4974079;28;20465;-71
2022/11/27 14:28:36;;;;;;;0.80;0.80;;;10.70;67.30;;;;;;4973726;28;20891;-70
2022/11/27 14:31:03;;;;;;;0.83;0.70;;;10.50;68.10;;;;;;4974000;28;20466;-70
2022/11/27 14:33:32;;;;;;;0.80;0.80;;;10.60;68.00;;;;;;4976407;28;20445;-71
2022/11/27 14:36:01;;;;;;;0.80;0.80;;;10.50;68.10;;;;;;4977503;28;20450;-71
2022/11/27 14:38:30;;;;;;;0.80;0.80;;;10.40;68.70;;;;;;4977491;28;20566;-71
2022/11/27 14:41:09;;;;;;;0.80;0.80;;;10.20;69.20;;;;;;4977290;28;20487;-71
2022/11/27 14:43:36;;;;;;;0.70;0.70;;;10.00;69.30;;;;;;4985534;28;20438;-73
2022/11/27 14:46:04;;;;;;;0.77;0.77;;;9.70;69.90;;;;;;4983552;28;20454;-73
2022/11/27 14:48:36;;;;;;;0.83;0.70;;;9.60;70.70;;;;;;4985505;28;20509;-74
2022/11/27 14:51:03;;;;;;;0.80;0.80;;;9.70;70.90;;;;;;4985304;28;20469;-75
2022/11/27 14:53:29;;;;;;;0.90;0.90;;;9.70;71.20;;;;;;4985734;28;20944;-71
2022/11/27 14:55:58;;;;;;;0.80;0.80;;;9.70;70.40;;;;;;4983301;28;20462;-71
2022/11/27 14:58:28;;;;;;;1.17;0.90;;;9.30;71.70;;;;;;4983671;28;20934;-71
2022/11/27 15:00:58;;;;;;;0.77;0.77;;;9.40;72.20;;;;;;4983358;28;20474;-71
2022/11/27 15:03:25;;;;;;;1.23;0.80;;;9.20;72.30;;;;;;4984183;28;20434;-72
2022/11/27 15:05:55;;;;;;;0.90;0.90;;;9.20;72.80;;;;;;4983065;28;20449;-71
2022/11/27 15:08:22;;;;;;;0.80;0.80;;;9.30;72.40;;;;;;4983149;28;20489;-72
2022/11/27 15:10:53;;;;;;;0.93;0.93;;;9.40;72.50;;;;;;4982639;28;20466;-71
2022/11/27 15:13:23;;;;;;;0.90;0.90;;;9.60;72.40;;;;;;4983227;28;20489;-71
2022/11/27 15:15:58;;;;;;;0.90;0.90;;;9.60;72.40;;;;;;4982438;28;20470;-71
2022/11/27 15:18:26;;;;;;;0.70;0.70;;;9.60;72.40;;;;;;4981975;28;20940;-71
2022/11/27 15:20:54;;;;;;;1.00;1.00;;;9.70;72.20;;;;;;4982651;28;21005;-71
2022/11/27 15:23:23;;;;;;;0.80;0.80;;;9.70;72.20;;;;;;4981814;28;20457;-72
2022/11/27 15:25:52;;;;;;;0.90;0.90;;;9.70;71.80;;;;;;4982535;28;20450;-71
2022/11/27 15:28:28;;;;;;;1.30;0.87;;;9.70;71.80;;;;;;4982505;28;20821;-70
2022/11/27 15:30:57;;;;;;;1.10;1.10;;;9.50;72.40;;;;;;4982675;28;20477;-71
2022/11/27 15:33:28;;;;;;;0.90;0.90;;;9.40;73.10;;;;;;4983805;28;20450;-71
2022/11/27 15:36:13;;;;;;;0.90;0.90;;;9.40;73.10;;;;;;4983757;28;20454;-70
2022/11/27 15:38:41;;;;;;;0.70;0.70;;;9.40;73.20;;;;;;4984214;28;20460;-69
2022/11/27 15:41:20;;;;;;;0.80;0.80;;;9.30;73.80;;;;;;4984235;28;20473;-73
2022/11/27 15:43:46;;;;;;;0.80;0.80;;;9.30;73.60;;;;;;4982529;28;20430;-71
2022/11/27 15:46:18;;;;;;;0.70;0.70;;;9.30;73.50;;;;;;4983062;28;20454;-71
2022/11/27 15:48:45;;;;;;;0.70;0.70;;;9.30;73.70;;;;;;4982046;28;20470;-70
2022/11/27 15:51:12;;;;;;;0.90;0.90;;;9.30;73.50;;;;;;4981961;28;20473;-71
2022/11/27 15:53:38;;;;;;;0.70;0.70;;;9.20;72.90;;;;;;4981628;28;20450;-71
2022/11/27 15:56:06;;;;;;;0.70;0.70;;;9.20;72.30;;;;;;4981864;28;20475;-71
2022/11/27 15:58:32;;;;;;;0.60;0.60;;;9.10;73.30;;;;;;4981709;28;20533;-71
2022/11/27 16:00:59;;;;;;;0.60;0.60;;;9.10;72.00;;;;;;4981317;28;21005;-71
2022/11/27 16:03:28;;;;;;;0.70;0.70;;;8.90;72.20;;;;;;4981874;28;20431;-69
2022/11/27 16:05:55;;;;;;;0.60;0.60;;;9.00;72.50;;;;;;4981985;28;20455;-72
2022/11/27 16:08:22;;;;;;;0.67;0.67;;;8.80;72.60;;;;;;4981471;28;20573;-71
2022/11/27 16:10:49;;;;;;;0.70;0.70;;;8.80;73.10;;;;;;4980419;28;20478;-71
2022/11/27 16:13:16;;;;;;;0.83;0.80;;;8.90;73.10;;;;;;4981513;28;20473;-72
2022/11/27 16:15:43;;;;;;;0.60;0.60;;;8.90;73.50;;;;;;4982205;28;20475;-71
2022/11/27 16:18:10;;;;;;;0.60;0.60;;;8.90;73.10;;;;;;4982048;28;20449;-72
2022/11/27 16:20:38;;;;;;;0.60;0.60;;;9.00;73.40;;;;;;4981461;28;20458;-73
2022/11/27 16:23:05;;;;;;;0.70;0.70;;;8.70;73.40;;;;;;4981915;28;20453;-72
2022/11/27 16:25:32;;;;;;;0.70;0.70;;;8.70;73.80;;;;;;4981903;28;20453;-75
2022/11/27 16:27:58;;;;;;;0.63;0.63;;;8.70;74.20;;;;;;4981804;28;20486;-73
2022/11/27 16:30:25;;;;;;;0.60;0.60;;;8.80;74.40;;;;;;4981341;28;20802;-72
2022/11/27 16:32:52;;;;;;;0.73;0.73;;;8.80;74.30;;;;;;4981005;28;20884;-72
2022/11/27 16:35:19;;;;;;;0.90;0.90;;;8.70;74.80;;;;;;4979131;28;20458;-73
2022/11/27 16:37:47;;;;;;;0.70;0.70;;;8.60;75.10;;;;;;4980300;28;20454;-71
2022/11/27 16:40:14;;;;;;;0.60;0.60;;;8.50;75.60;;;;;;4979990;28;20900;-72
2022/11/27 16:42:41;;;;;;;0.70;0.70;;;8.60;75.30;;;;;;4979396;28;20538;-72
2022/11/27 16:45:08;;;;;;;0.80;0.80;;;8.50;76.00;;;;;;4980104;28;20450;-73
2022/11/27 16:47:35;;;;;;;0.80;0.80;;;8.20;76.90;;;;;;4979030;28;20458;-72
2022/11/27 16:50:02;;;;;;;0.70;0.70;;;8.10;77.60;;;;;;4980138;28;20490;-73
2022/11/27 16:52:29;;;;;;;1.10;1.10;;;8.10;77.30;;;;;;4980404;28;20466;-73
2022/11/27 16:54:57;;;;;;;1.00;1.00;;;8.20;77.60;;;;;;4979973;28;20450;-72
2022/11/27 16:57:23;;;;;;;0.93;0.93;;;8.10;77.90;;;;;;4979428;28;20830;-72
2022/11/27 16:59:50;;;;;;;0.87;0.87;;;8.20;77.80;;;;;;4982627;28;20835;-70
2022/11/27 17:02:17;;;;;;;1.00;1.00;;;8.10;78.10;;;;;;4981007;28;20497;-72
2022/11/27 17:04:44;;;;;;;0.67;0.67;;;8.20;78.10;;;;;;4980583;28;20458;-70
2022/11/27 17:07:10;;;;;;;1.00;1.00;;;8.30;77.80;;;;;;4975299;28;20469;-71
2022/11/27 17:09:37;;;;;;;0.90;0.90;;;8.40;77.60;;;;;;4975103;28;20494;-71